Time;durP1;ratioP1;P1;durP2;ratioP2;P2;SDS_P1;SDS_P2;PMS_P1;PMS_P2;Temp;Humidity;BMP_temperature;BMP_pressure;BME280_temperature;BME280_humidity;BME280_pressure;Samples;Min_cycle;Max_cycle;Signal;HPM_P1;HPM_P2
2022/10/19 00:01:22;;;;;;;9.77;8.30;;;;;;;9.47;66.23;100154.06;5073216;28;20216;-71
2022/10/19 00:03:51;;;;;;;8.07;7.23;;;;;;;9.47;66.54;100153.22;5073304;28;20624;-72
2022/10/19 00:06:23;;;;;;;9.03;7.53;;;;;;;9.50;65.76;100152.88;5072873;28;20241;-72
2022/10/19 00:08:50;;;;;;;8.00;7.27;;;;;;;9.29;65.57;100144.69;5073188;28;20191;-72
2022/10/19 00:11:17;;;;;;;10.17;7.97;;;;;;;9.24;65.98;100149.69;5071995;28;20227;-72
2022/10/19 00:13:45;;;;;;;8.97;8.00;;;;;;;9.23;65.96;100140.09;5052922;28;20192;-72
2022/10/19 00:16:14;;;;;;;8.23;7.43;;;;;;;9.12;66.42;100137.78;5052704;28;20188;-72
2022/10/19 00:18:43;;;;;;;8.73;7.17;;;;;;;9.04;66.43;100135.16;5053053;28;20189;-72
2022/10/19 00:21:12;;;;;;;10.33;7.40;;;;;;;8.97;67.95;100128.88;5052591;28;20308;-72
2022/10/19 00:23:39;;;;;;;7.03;6.43;;;;;;;8.98;67.42;100115.47;5052504;28;20256;-72
2022/10/19 00:26:06;;;;;;;10.77;7.73;;;;;;;8.91;68.07;100125.09;5065659;28;20273;-72
2022/10/19 00:28:33;;;;;;;13.00;6.93;;;;;;;8.82;67.94;100112.88;5066998;28;20196;-72
2022/10/19 00:31:04;;;;;;;6.30;5.80;;;;;;;8.76;68.56;100110.91;5053360;28;20630;-72
2022/10/19 00:33:31;;;;;;;7.40;6.87;;;;;;;8.76;68.60;100113.56;5059480;28;20241;-72
2022/10/19 00:35:58;;;;;;;9.27;6.23;;;;;;;8.76;68.47;100104.78;5072791;28;20199;-72
2022/10/19 00:38:25;;;;;;;7.50;6.13;;;;;;;8.64;69.16;100106.13;5072254;28;20195;-72
2022/10/19 00:40:51;;;;;;;7.30;6.70;;;;;;;8.63;68.91;100101.84;5072449;28;20223;-72
2022/10/19 00:43:20;;;;;;;7.00;6.43;;;;;;;8.68;68.18;100099.50;5072193;28;20203;-72
2022/10/19 00:45:47;;;;;;;13.20;6.93;;;;;;;8.73;68.66;100097.16;5072512;28;20193;-72
2022/10/19 00:48:19;;;;;;;14.50;6.57;;;;;;;8.80;68.09;100095.50;5072111;28;20192;-72
2022/10/19 00:50:47;;;;;;;9.07;7.07;;;;;;;8.91;67.85;100087.19;5072194;28;20676;-72
2022/10/19 00:53:14;;;;;;;8.33;6.87;;;;;;;8.96;68.18;100090.16;5071982;28;20737;-71
2022/10/19 00:55:41;;;;;;;7.27;6.47;;;;;;;8.89;67.95;100062.69;5072408;28;20200;-71
2022/10/19 00:58:09;;;;;;;7.77;6.30;;;;;;;9.07;67.88;100065.94;5071969;28;20195;-71
2022/10/19 01:00:36;;;;;;;6.80;6.30;;;;;;;9.13;68.07;100070.53;5071976;28;20725;-72
2022/10/19 01:03:03;;;;;;;8.63;6.60;;;;;;;9.12;67.37;100075.03;5072672;28;20256;-71
2022/10/19 01:05:33;;;;;;;8.60;6.67;;;;;;;9.15;67.84;100064.06;5071607;28;20192;-71
2022/10/19 01:08:01;;;;;;;7.47;6.70;;;;;;;9.19;66.76;100059.25;5072106;28;20706;-73
2022/10/19 01:10:43;;;;;;;7.53;6.90;;;;;;;9.21;66.96;100063.38;5071871;28;20192;-72
2022/10/19 01:13:21;;;;;;;7.50;6.90;;;;;;;9.20;66.75;100059.06;5072768;28;20196;-72
2022/10/19 01:15:57;;;;;;;7.80;6.37;;;;;;;9.24;66.73;100051.59;5071951;28;20245;-72
2022/10/19 01:18:33;;;;;;;7.43;6.53;;;;;;;9.31;66.27;100047.28;5072755;28;20343;-72
2022/10/19 01:21:20;;;;;;;7.97;7.23;;;;;;;9.33;66.57;100058.50;5071779;28;20257;-73
2022/10/19 01:24:20;;;;;;;7.13;6.53;;;;;;;9.34;66.08;100046.91;5071754;28;20184;-72
2022/10/19 01:27:26;;;;;;;7.97;6.43;;;;;;;9.33;65.94;100045.25;5072968;28;20184;-72
2022/10/19 01:30:13;;;;;;;8.03;6.93;;;;;;;9.34;66.02;100041.59;5072079;28;20249;-72
2022/10/19 01:33:11;;;;;;;6.97;6.37;;;;;;;9.36;66.28;100034.31;5072032;28;20282;-73
2022/10/19 01:35:45;;;;;;;10.73;7.37;;;;;;;9.32;66.32;100036.47;5039677;28;20714;-72
2022/10/19 01:38:23;;;;;;;10.30;7.03;;;;;;;9.35;66.01;100033.47;5051517;28;20718;-72
2022/10/19 01:40:57;;;;;;;8.63;6.90;;;;;;;9.39;65.56;100033.97;5051584;28;20184;-72
2022/10/19 01:43:33;;;;;;;7.97;7.13;;;;;;;9.39;65.56;100028.66;5051543;28;20246;-72
2022/10/19 01:46:09;;;;;;;7.40;6.73;;;;;;;9.38;66.07;100027.00;5051923;28;20242;-72
2022/10/19 01:48:40;;;;;;;8.23;7.30;;;;;;;9.35;65.78;100030.00;5051524;28;20737;-72
2022/10/19 01:51:13;;;;;;;8.13;7.33;;;;;;;9.37;66.14;100028.84;5052101;28;20614;-72
2022/10/19 01:53:44;;;;;;;9.20;6.93;;;;;;;9.37;65.73;100025.34;5051753;28;20275;-72
2022/10/19 01:56:12;;;;;;;11.37;7.37;;;;;;;9.39;66.06;100026.81;5052191;28;20242;-72
2022/10/19 01:58:42;;;;;;;11.67;7.67;;;;;;;9.35;66.38;100022.88;5052173;28;20196;-72
2022/10/19 02:01:13;;;;;;;7.80;7.30;;;;;;;9.34;65.88;100025.69;5051324;28;20220;-72
2022/10/19 02:03:41;;;;;;;8.40;7.10;;;;;;;9.33;65.18;100022.22;5051363;28;20234;-71
2022/10/19 02:06:10;;;;;;;10.43;7.17;;;;;;;9.30;66.24;100017.28;5051673;28;20622;-72
2022/10/19 02:08:43;;;;;;;7.57;7.07;;;;;;;9.29;66.32;100017.44;5051244;28;20193;-70
2022/10/19 02:11:10;;;;;;;8.40;7.53;;;;;;;9.29;66.22;100006.84;5051355;28;20297;-71
2022/10/19 02:13:39;;;;;;;10.47;8.23;;;;;;;9.30;66.45;100011.97;5051205;28;20717;-72
2022/10/19 02:16:10;;;;;;;10.70;8.00;;;;;;;9.27;66.83;100004.34;5051275;28;20769;-72
2022/10/19 02:18:44;;;;;;;10.13;8.00;;;;;;;9.20;66.41;100007.91;5054786;28;20239;-73
2022/10/19 02:21:11;;;;;;;9.80;7.67;;;;;;;9.11;67.46;100003.66;5055175;28;20207;-72
2022/10/19 02:23:38;;;;;;;8.37;7.23;;;;;;;9.07;67.01;99997.03;5054810;28;20656;-72
2022/10/19 02:26:05;;;;;;;8.00;7.20;;;;;;;9.05;67.45;99993.72;5067380;28;20586;-71
2022/10/19 02:28:32;;;;;;;9.50;7.67;;;;;;;9.03;67.30;99995.75;5075359;28;20249;-72
2022/10/19 02:31:00;;;;;;;9.53;7.27;;;;;;;9.01;66.87;99981.81;5074665;28;20663;-72
2022/10/19 02:33:28;;;;;;;9.30;6.60;;;;;;;8.96;67.25;99986.81;5075512;28;20257;-72
2022/10/19 02:35:58;;;;;;;10.97;6.80;;;;;;;8.94;67.44;99991.50;5074892;28;20259;-72
2022/10/19 02:38:25;;;;;;;7.00;6.17;;;;;;;8.88;66.66;99992.16;5075752;28;20188;-72
2022/10/19 02:40:59;;;;;;;6.90;6.37;;;;;;;8.79;66.90;99987.91;5074822;28;20199;-73
2022/10/19 02:43:28;;;;;;;6.47;5.97;;;;;;;8.67;66.74;99958.34;5074499;28;20655;-72
2022/10/19 02:46:01;;;;;;;6.30;5.80;;;;;;;8.83;66.62;99975.97;5074737;28;20195;-73
2022/10/19 02:48:32;;;;;;;6.27;5.77;;;;;;;8.84;66.87;99985.56;5074496;28;20214;-73
2022/10/19 02:51:00;;;;;;;6.03;5.47;;;;;;;8.78;67.01;99983.63;5074691;28;20180;-73
2022/10/19 02:53:26;;;;;;;6.47;5.87;;;;;;;8.66;66.45;99974.41;5074865;28;20253;-72
2022/10/19 02:55:53;;;;;;;8.13;5.73;;;;;;;8.61;66.71;99968.78;5074170;28;20733;-74
2022/10/19 02:58:20;;;;;;;9.33;6.00;;;;;;;8.60;66.98;99967.97;5075405;28;20192;-73
2022/10/19 03:00:46;;;;;;;5.63;5.13;;;;;;;8.60;66.75;99967.97;5074024;28;20196;-73
2022/10/19 03:03:13;;;;;;;6.33;5.57;;;;;;;8.62;67.23;99975.75;5074089;28;20691;-73
2022/10/19 03:05:40;;;;;;;8.77;6.00;;;;;;;8.59;67.08;99973.44;5074568;28;20200;-73
2022/10/19 03:08:08;;;;;;;5.57;4.97;;;;;;;8.56;67.88;99969.31;5073992;28;20618;-72
2022/10/19 03:10:35;;;;;;;6.37;5.80;;;;;;;8.55;68.15;99964.19;5073728;28;20228;-73
2022/10/19 03:13:01;;;;;;;7.40;6.00;;;;;;;8.54;68.08;99962.53;5074547;28;20188;-73
2022/10/19 03:15:29;;;;;;;6.93;5.80;;;;;;;8.54;67.34;99957.22;5073833;28;20257;-73
2022/10/19 03:17:56;;;;;;;6.93;5.73;;;;;;;8.49;67.95;99955.09;5074205;28;20207;-72
2022/10/19 03:20:23;;;;;;;6.73;5.87;;;;;;;8.45;68.14;99963.56;5073703;28;20657;-72
2022/10/19 03:22:50;;;;;;;9.90;6.20;;;;;;;8.44;68.20;99962.72;5073709;28;20216;-72
2022/10/19 03:25:18;;;;;;;17.23;6.40;;;;;;;8.39;68.40;99949.19;5073860;28;20211;-73
2022/10/19 03:27:45;;;;;;;9.60;5.80;;;;;;;8.38;68.15;99952.00;5073744;28;20195;-72
2022/10/19 03:30:12;;;;;;;7.37;5.60;;;;;;;8.37;68.83;99958.28;5054565;28;20254;-73
2022/10/19 03:32:38;;;;;;;8.30;5.63;;;;;;;8.35;68.69;99957.63;5053838;28;20193;-72
2022/10/19 03:35:06;;;;;;;6.43;5.87;;;;;;;8.33;68.83;99959.63;5073156;28;20253;-72
2022/10/19 03:37:33;;;;;;;6.70;6.10;;;;;;;8.30;68.39;99946.72;5073735;28;20192;-72
2022/10/19 03:40:00;;;;;;;7.60;5.60;;;;;;;8.28;68.44;99946.91;5073711;28;20641;-73
2022/10/19 03:42:28;;;;;;;9.43;6.23;;;;;;;8.30;68.33;99950.22;5073910;28;20284;-73
2022/10/19 03:44:55;;;;;;;6.20;5.60;;;;;;;8.23;68.89;99948.41;5073302;28;20196;-72
2022/10/19 03:47:21;;;;;;;10.30;6.73;;;;;;;8.25;68.64;99946.41;5073330;28;20191;-71
2022/10/19 03:49:49;;;;;;;8.50;6.10;;;;;;;8.19;68.31;99944.41;5073439;28;20269;-71
2022/10/19 03:52:16;;;;;;;14.60;6.73;;;;;;;8.22;69.14;99947.59;5073187;28;20195;-72
2022/10/19 03:54:42;;;;;;;9.23;6.47;;;;;;;8.21;68.90;99945.13;5073258;28;20218;-71
2022/10/19 03:57:09;;;;;;;8.37;6.40;;;;;;;8.19;68.88;99947.06;5072820;28;20666;-71
2022/10/19 03:59:37;;;;;;;7.80;6.30;;;;;;;8.11;69.01;99944.44;5073693;28;20191;-72
2022/10/19 04:02:04;;;;;;;11.90;6.60;;;;;;;8.12;69.31;99943.44;5073029;28;20219;-72
2022/10/19 04:04:31;;;;;;;10.90;7.07;;;;;;;8.09;68.89;99941.94;5073649;28;20205;-71
2022/10/19 04:06:58;;;;;;;12.80;6.70;;;;;;;8.07;69.11;99946.59;5072927;28;20191;-71
2022/10/19 04:09:25;;;;;;;10.50;6.87;;;;;;;8.04;69.09;99938.19;5073032;28;20621;-72
2022/10/19 04:11:51;;;;;;;14.73;7.63;;;;;;;7.98;69.33;99930.91;5072318;28;20235;-71
2022/10/19 04:14:20;;;;;;;12.03;7.47;;;;;;;7.96;69.81;99935.56;5073440;28;20241;-71
2022/10/19 04:16:48;;;;;;;16.30;7.27;;;;;;;7.94;70.59;99932.25;5072791;28;20200;-71
2022/10/19 04:19:15;;;;;;;12.63;6.93;;;;;;;7.90;70.09;99936.22;5072451;28;20200;-72
2022/10/19 04:21:43;;;;;;;23.33;7.27;;;;;;;7.89;70.97;99937.22;5072600;28;20282;-71
2022/10/19 04:24:12;;;;;;;14.37;8.37;;;;;;;7.89;70.48;99929.28;5072933;28;20217;-72
2022/10/19 04:26:41;;;;;;;10.10;7.27;;;;;;;7.76;71.06;99897.25;5072120;28;20283;-72
2022/10/19 04:29:08;;;;;;;19.50;8.60;;;;;;;7.91;70.76;99924.63;5072864;28;20265;-71
2022/10/19 04:31:35;;;;;;;20.70;8.40;;;;;;;7.90;70.77;99920.34;5072217;28;20196;-72
2022/10/19 04:34:03;;;;;;;22.80;8.30;;;;;;;7.92;70.46;99919.19;5072189;28;20192;-72
2022/10/19 04:36:31;;;;;;;27.53;9.47;;;;;;;7.96;70.80;99928.44;5072269;28;20195;-72
2022/10/19 04:38:57;;;;;;;20.03;11.43;;;;;;;7.88;71.39;99909.94;5073339;28;20359;-72
2022/10/19 04:41:25;;;;;;;27.53;11.23;;;;;;;7.96;70.50;99909.09;5072022;28;20656;-72
2022/10/19 04:43:55;;;;;;;10.80;8.97;;;;;;;7.96;70.22;99914.41;5072427;28;20199;-73
2022/10/19 04:46:22;;;;;;;29.63;9.67;;;;;;;7.97;70.26;99905.47;5072123;28;20184;-72
2022/10/19 04:48:49;;;;;;;20.37;8.37;;;;;;;7.97;70.25;99910.75;5071872;28;20253;-69
2022/10/19 04:51:18;;;;;;;29.17;8.60;;;;;;;7.95;69.78;99912.72;5072321;28;20195;-69
2022/10/19 04:53:45;;;;;;;13.87;8.13;;;;;;;7.98;69.79;99902.66;5072192;28;20224;-70
2022/10/19 04:56:14;;;;;;;9.33;8.63;;;;;;;7.91;69.88;99901.66;5072697;28;20191;-70
2022/10/19 04:58:41;;;;;;;13.40;8.93;;;;;;;7.91;69.44;99906.13;5071659;28;20202;-69
2022/10/19 05:01:10;;;;;;;16.20;9.60;;;;;;;7.92;69.33;99910.44;5072051;28;20260;-69
2022/10/19 05:03:37;;;;;;;18.83;10.37;;;;;;;7.85;69.44;99906.81;5071905;28;20287;-68
2022/10/19 05:06:04;;;;;;;44.23;22.93;;;;;;;7.76;69.73;99898.06;5072429;28;20322;-72
2022/10/19 05:08:33;;;;;;;43.43;23.37;;;;;;;7.76;70.51;99898.06;5072250;28;20617;-68
2022/10/19 05:11:04;;;;;;;36.80;19.60;;;;;;;8.01;69.94;99904.13;5070336;28;20727;-68
2022/10/19 05:13:32;;;;;;;31.50;18.60;;;;;;;8.38;69.63;99904.34;5071846;28;20230;-69
2022/10/19 05:16:00;;;;;;;38.77;17.37;;;;;;;8.77;68.78;99913.09;5072160;28;20195;-71
2022/10/19 05:18:27;;;;;;;37.73;17.13;;;;;;;9.16;67.42;99906.72;5071793;28;20191;-69
2022/10/19 05:21:01;;;;;;;33.77;15.17;;;;;;;9.55;65.49;99901.25;5071877;28;20187;-69
2022/10/19 05:23:28;;;;;;;46.67;19.00;;;;;;;9.97;63.91;99909.47;5069478;28;20204;-69
2022/10/19 05:26:02;;;;;;;32.53;16.23;;;;;;;10.37;62.73;99909.03;5067246;28;20261;-69
2022/10/19 05:28:29;;;;;;;19.30;12.17;;;;;;;10.82;61.29;99914.91;5067442;28;20271;-68
2022/10/19 05:30:56;;;;;;;23.77;11.10;;;;;;;11.19;58.53;99921.03;5072383;28;20199;-69
2022/10/19 05:33:22;;;;;;;15.07;8.70;;;;;;;11.45;57.34;99916.78;5072163;28;20242;-68
2022/10/19 05:35:49;;;;;;;14.20;7.87;;;;;;;11.69;56.13;99924.41;5071636;28;20734;-67
2022/10/19 05:38:16;;;;;;;16.53;6.70;;;;;;;11.92;61.05;99919.66;5071947;28;20285;-69
2022/10/19 05:40:46;;;;;;;15.40;7.37;;;;;;;12.95;69.21;99907.06;5055117;28;20241;-72
2022/10/19 05:43:14;;;;;;;18.03;8.43;;;;;;;13.25;51.65;99930.56;5051486;28;20701;-72
2022/10/19 05:45:41;;;;;;;7.57;6.83;;;;;;;13.27;50.45;99928.50;5051333;28;20641;-72
2022/10/19 05:48:07;;;;;;;10.80;6.40;;;;;;;13.21;51.11;99929.31;5050808;28;20195;-74
2022/10/19 05:50:34;;;;;;;28.80;8.50;;;;;;;13.45;51.35;99931.41;5051522;28;20208;-72
2022/10/19 05:53:01;;;;;;;16.90;8.23;;;;;;;13.83;50.40;99926.28;5055350;28;20224;-72
2022/10/19 05:55:27;;;;;;;14.13;8.30;;;;;;;14.17;50.46;99910.81;5055742;28;20196;-69
2022/10/19 05:57:54;;;;;;;11.97;6.80;;;;;;;14.71;47.19;99940.69;5055089;28;20200;-72
2022/10/19 06:00:22;;;;;;;15.07;7.07;;;;;;;15.14;47.90;99936.41;5055129;28;20668;-71
2022/10/19 06:02:49;;;;;;;16.20;6.50;;;;;;;15.54;44.62;99937.81;5055036;28;20204;-71
2022/10/19 06:05:16;;;;;;;12.98;6.40;;;;;;;15.70;41.48;99928.44;5055016;28;20435;-72
2022/10/19 06:07:42;;;;;;;12.17;6.43;;;;;;;16.13;41.87;99936.50;5055546;28;20201;-72
2022/10/19 06:10:09;;;;;;;9.63;5.33;;;;;;;15.92;42.34;99934.22;5054992;28;20733;-72
2022/10/19 06:12:37;;;;;;;14.33;7.00;;;;;;;15.75;42.06;99934.78;5054696;28;20255;-72
2022/10/19 06:15:04;;;;;;;15.43;6.87;;;;;;;15.80;41.70;99932.25;5052760;28;20656;-72
2022/10/19 06:17:32;;;;;;;10.60;6.77;;;;;;;16.02;41.91;99925.47;5053691;28;20235;-71
2022/10/19 06:19:59;;;;;;;14.63;5.90;;;;;;;16.36;41.16;99932.13;5054452;28;20196;-71
2022/10/19 06:22:25;;;;;;;10.97;6.80;;;;;;;16.50;41.67;99919.44;5054511;28;20254;-71
2022/10/19 06:24:52;;;;;;;10.93;8.67;;;;;;;16.44;40.46;99939.09;5057350;28;20201;-72
2022/10/19 06:27:19;;;;;;;12.83;6.57;;;;;;;16.70;46.96;99917.34;5074287;28;20249;-67
2022/10/19 06:29:45;;;;;;;6.90;5.77;;;;;;;17.78;48.65;99922.41;5074388;28;20671;-67
2022/10/19 06:32:12;;;;;;;7.53;5.57;;;;;;;18.79;37.19;99931.75;5075367;28;20257;-67
2022/10/19 06:34:40;;;;;;;8.30;5.67;;;;;;;19.25;40.43;99920.84;5074361;28;20261;-68
2022/10/19 06:37:07;;;;;;;6.00;5.43;;;;;;;19.63;34.16;99926.34;5074329;28;20617;-65
2022/10/19 06:39:34;;;;;;;7.27;5.40;;;;;;;19.80;35.41;99916.41;5070968;28;20231;-66
2022/10/19 06:42:00;;;;;;;8.47;5.70;;;;;;;20.29;33.51;99912.88;5054719;28;20199;-69
2022/10/19 06:44:27;;;;;;;10.40;5.20;;;;;;;20.50;33.47;99914.78;5054135;28;20661;-68
2022/10/19 06:46:54;;;;;;;10.93;5.53;;;;;;;20.38;33.50;99904.09;5054386;28;20210;-72
2022/10/19 06:49:20;;;;;;;10.40;6.73;;;;;;;20.77;33.88;99904.03;5071695;28;20245;-72
2022/10/19 06:51:48;;;;;;;23.37;7.37;;;;;;;21.19;33.01;99902.41;5074833;28;20248;-72
2022/10/19 06:54:15;;;;;;;13.33;6.30;;;;;;;21.51;32.45;99895.97;5073952;28;20642;-72
2022/10/19 06:56:43;;;;;;;15.97;6.60;;;;;;;21.80;32.22;99900.03;5075092;28;20196;-72
2022/10/19 06:59:12;;;;;;;12.13;6.53;;;;;;;21.81;31.65;99898.94;5073920;28;20192;-71
2022/10/19 07:01:39;;;;;;;13.87;6.23;;;;;;;22.26;31.90;99893.84;5074334;28;20191;-72
2022/10/19 07:04:05;;;;;;;10.67;6.83;;;;;;;22.17;31.02;99903.53;5073458;28;20200;-73
2022/10/19 07:06:32;;;;;;;12.07;5.90;;;;;;;21.99;30.68;99897.72;5073902;28;20683;-72
2022/10/19 07:09:01;;;;;;;9.30;6.43;;;;;;;22.03;29.35;99896.13;5074079;28;20253;-72
2022/10/19 07:11:28;;;;;;;12.30;6.50;;;;;;;22.17;31.29;99898.13;5073905;28;20727;-74
2022/10/19 07:13:55;;;;;;;6.80;6.17;;;;;;;22.14;31.34;99893.25;5072168;28;20293;-73
2022/10/19 07:16:22;;;;;;;30.93;7.37;;;;;;;22.37;30.72;99890.13;5054061;28;20196;-73
2022/10/19 07:18:51;;;;;;;9.20;5.67;;;;;;;22.65;29.69;99873.50;5071967;28;20608;-73
2022/10/19 07:21:19;;;;;;;9.37;5.77;;;;;;;22.33;28.58;99890.91;5076202;28;20724;-72
2022/10/19 07:23:47;;;;;;;13.30;7.07;;;;;;;22.46;30.69;99885.84;5073670;28;20268;-72
2022/10/19 07:26:17;;;;;;;20.87;14.90;;;;;;;22.90;30.50;99887.13;5076455;28;20279;-72
2022/10/19 07:28:45;;;;;;;8.77;6.27;;;;;;;23.04;28.10;99880.13;5073881;28;20181;-72
2022/10/19 07:31:16;;;;;;;9.27;6.20;;;;;;;22.12;28.99;99884.56;5074109;28;20193;-73
2022/10/19 07:33:43;;;;;;;15.17;6.33;;;;;;;21.00;30.08;99864.13;5073876;28;20227;-72
2022/10/19 07:36:12;;;;;;;7.97;6.10;;;;;;;20.57;30.67;99856.03;5073797;28;20192;-71
2022/10/19 07:38:39;;;;;;;10.33;8.33;;;;;;;20.92;33.98;99848.38;5073655;28;20265;-72
2022/10/19 07:41:08;;;;;;;18.87;8.47;;;;;;;21.64;31.95;99857.66;5060032;28;20637;-73
2022/10/19 07:43:37;;;;;;;23.97;8.13;;;;;;;21.90;29.80;99856.81;5053192;28;20668;-72
2022/10/19 07:46:06;;;;;;;21.67;7.33;;;;;;;22.04;31.72;99851.75;5055904;28;20258;-72
2022/10/19 07:48:33;;;;;;;9.60;6.93;;;;;;;22.46;29.42;99856.06;5054162;28;20189;-73
2022/10/19 07:51:01;;;;;;;19.87;11.70;;;;;;;23.03;29.83;99851.38;5062046;28;20196;-70
2022/10/19 07:53:28;;;;;;;14.90;10.07;;;;;;;23.46;28.31;99856.38;5066465;28;20212;-67
2022/10/19 07:55:55;;;;;;;22.77;14.23;;;;;;;23.94;31.00;99836.81;5074090;28;20192;-67
2022/10/19 07:58:22;;;;;;;7.73;7.13;;;;;;;24.09;26.08;99846.84;5055172;28;20194;-68
2022/10/19 08:00:50;;;;;;;9.77;6.53;;;;;;;23.99;27.05;99836.81;5061927;28;20194;-69
2022/10/19 08:03:17;;;;;;;21.70;9.37;;;;;;;24.32;27.24;99838.91;5062608;28;20201;-68
2022/10/19 08:05:43;;;;;;;24.33;7.43;;;;;;;24.63;25.75;99837.69;5073238;28;20199;-71
2022/10/19 08:08:10;;;;;;;24.33;11.40;;;;;;;24.74;26.82;99831.13;5057403;28;20250;-71
2022/10/19 08:10:37;;;;;;;21.67;10.83;;;;;;;24.75;25.91;99831.94;5053061;28;20230;-72
2022/10/19 08:13:03;;;;;;;6.50;5.23;;;;;;;24.59;25.42;99833.09;5052655;28;20686;-70
2022/10/19 08:15:31;;;;;;;7.93;6.80;;;;;;;24.59;26.29;99828.44;5056904;28;20195;-70
2022/10/19 08:17:59;;;;;;;9.23;6.90;;;;;;;24.62;25.06;99825.22;5072568;28;20662;-70
2022/10/19 08:20:26;;;;;;;11.67;5.40;;;;;;;24.45;25.23;99822.00;5072844;28;20197;-70
2022/10/19 08:22:53;;;;;;;8.60;6.90;;;;;;;24.08;25.87;99818.06;5072283;28;20220;-68
2022/10/19 08:25:20;;;;;;;7.17;5.67;;;;;;;24.26;25.87;99812.81;5073415;28;20334;-68
2022/10/19 08:27:46;;;;;;;23.90;5.97;;;;;;;24.36;25.84;99806.56;5072414;28;20200;-68
2022/10/19 08:30:13;;;;;;;6.60;5.37;;;;;;;23.98;25.70;99793.66;5052986;28;20195;-69
2022/10/19 08:32:40;;;;;;;7.20;5.80;;;;;;;24.26;25.37;99796.53;5052208;28;20270;-68
2022/10/19 08:35:08;;;;;;;7.03;5.23;;;;;;;24.37;25.97;99792.69;5071434;28;20225;-68
2022/10/19 08:37:35;;;;;;;9.07;6.53;;;;;;;24.49;25.70;99795.91;5070765;28;20755;-68
2022/10/19 08:40:02;;;;;;;15.40;5.00;;;;;;;24.29;25.09;99789.75;5068224;28;20199;-69
2022/10/19 08:42:41;;;;;;;9.53;5.83;;;;;;;24.17;26.18;99787.34;5052537;28;20210;-69
2022/10/19 08:45:41;;;;;;;13.00;5.60;;;;;;;24.22;25.06;99792.75;5052559;28;20555;-68
2022/10/19 08:48:22;;;;;;;13.70;7.17;;;;;;;24.47;26.13;99787.22;5057268;28;20198;-68
2022/10/19 08:50:51;;;;;;;10.07;6.23;;;;;;;24.64;24.87;99781.47;5072271;28;20575;-65
2022/10/19 08:53:24;;;;;;;13.93;7.20;;;;;;;24.56;25.30;99780.13;5072920;28;20265;-64
2022/10/19 08:56:04;;;;;;;7.77;5.70;;;;;;;24.32;25.39;99762.84;5072201;28;20262;-68
2022/10/19 08:58:47;;;;;;;15.00;6.63;;;;;;;24.00;25.63;99776.00;5071258;28;20269;-66
2022/10/19 09:01:24;;;;;;;18.20;6.00;;;;;;;22.93;26.41;99764.66;5072406;28;20197;-65
2022/10/19 09:03:59;;;;;;;20.40;6.47;;;;;;;21.97;27.23;99759.22;5071939;28;20242;-66
2022/10/19 09:06:31;;;;;;;8.73;5.33;;;;;;;22.08;27.64;99777.91;5072970;28;20232;-64
2022/10/19 09:08:59;;;;;;;15.67;5.97;;;;;;;22.39;27.77;99778.84;5072347;28;20180;-72
2022/10/19 09:11:28;;;;;;;7.63;4.83;;;;;;;22.47;26.73;99776.50;5070815;28;20234;-71
2022/10/19 09:14:00;;;;;;;10.77;5.57;;;;;;;22.68;27.05;99763.81;5071677;28;20216;-73
2022/10/19 09:16:27;;;;;;;11.23;5.37;;;;;;;22.68;27.55;99751.09;5072297;28;20541;-71
2022/10/19 09:18:54;;;;;;;13.70;5.67;;;;;;;23.20;26.86;99764.44;5071965;28;20192;-71
2022/10/19 09:21:24;;;;;;;8.40;5.33;;;;;;;23.22;27.25;99763.09;5072385;28;20253;-72
2022/10/19 09:23:58;;;;;;;8.13;5.77;;;;;;;23.37;26.69;99765.81;5072168;28;20617;-71
2022/10/19 09:26:28;;;;;;;8.93;5.27;;;;;;;23.52;26.50;99752.22;5075504;28;20275;-71
2022/10/19 09:29:01;;;;;;;8.37;4.90;;;;;;;23.85;26.20;99750.78;5069578;28;20197;-73
2022/10/19 09:31:31;;;;;;;15.60;5.47;;;;;;;23.90;25.22;99743.47;5058171;28;20185;-71
2022/10/19 09:34:01;;;;;;;8.30;5.90;;;;;;;23.95;25.28;99745.34;5067974;28;20212;-72
2022/10/19 09:36:35;;;;;;;12.57;5.27;;;;;;;23.95;25.04;99743.47;5072631;28;20185;-70
2022/10/19 09:39:04;;;;;;;25.00;6.70;;;;;;;23.95;25.13;99740.75;5067317;28;20277;-70
2022/10/19 09:41:31;;;;;;;11.63;5.27;;;;;;;23.70;25.29;99724.53;5077364;28;20632;-70
2022/10/19 09:43:58;;;;;;;8.20;5.33;;;;;;;23.63;25.69;99734.84;5072849;28;20676;-71
2022/10/19 09:46:32;;;;;;;14.10;5.50;;;;;;;23.76;25.13;99731.53;5058081;28;20197;-71
2022/10/19 09:49:01;;;;;;;8.00;4.47;;;;;;;23.89;24.58;99720.09;5056642;28;20245;-71
2022/10/19 09:51:39;;;;;;;12.27;5.33;;;;;;;24.01;24.65;99727.97;5057893;28;20565;-71
2022/10/19 09:54:24;;;;;;;14.00;5.20;;;;;;;24.08;24.52;99723.88;5057717;28;20265;-71
2022/10/19 09:56:56;;;;;;;11.90;5.50;;;;;;;24.15;24.74;99710.00;5057827;28;20225;-71
2022/10/19 09:59:24;;;;;;;15.37;4.63;;;;;;;24.39;24.78;99719.88;5067267;28;20206;-70
2022/10/19 10:02:02;;;;;;;13.40;5.40;;;;;;;24.47;24.04;99718.50;5078121;28;20194;-71
2022/10/19 10:04:30;;;;;;;11.20;5.00;;;;;;;24.47;24.25;99704.94;5078084;28;20190;-71
2022/10/19 10:06:58;;;;;;;10.33;5.33;;;;;;;24.27;24.53;99695.00;5078107;28;20244;-71
2022/10/19 10:09:28;;;;;;;10.10;5.03;;;;;;;24.24;24.24;99705.59;5078400;28;20197;-71
2022/10/19 10:11:58;;;;;;;8.13;5.00;;;;;;;24.05;24.18;99702.69;5077317;28;20238;-71
2022/10/19 10:14:30;;;;;;;9.63;5.60;;;;;;;23.85;24.79;99697.31;5078215;28;20253;-70
2022/10/19 10:17:01;;;;;;;21.00;5.20;;;;;;;23.83;25.37;99694.09;5072441;28;20222;-71
2022/10/19 10:19:29;;;;;;;53.57;6.83;;;;;;;23.93;24.97;99691.34;5058684;28;20192;-72
2022/10/19 10:21:57;;;;;;;19.40;5.20;;;;;;;24.11;24.84;99682.59;5058893;28;20191;-75
2022/10/19 10:24:27;;;;;;;13.03;5.03;;;;;;;24.27;24.33;99678.72;5059407;28;20200;-72
2022/10/19 10:26:57;;;;;;;8.87;5.20;;;;;;;24.26;24.59;99677.06;5079028;28;20195;-73
2022/10/19 10:29:25;;;;;;;15.13;5.03;;;;;;;24.14;24.62;99673.88;5080255;28;20279;-73
2022/10/19 10:31:55;;;;;;;17.30;4.97;;;;;;;23.77;24.57;99651.75;5079565;28;20618;-73
2022/10/19 10:34:34;;;;;;;11.47;4.77;;;;;;;23.61;25.13;99658.34;5077866;28;20216;-73
2022/10/19 10:37:02;;;;;;;12.33;5.43;;;;;;;23.51;25.02;99658.38;5078165;28;20201;-72
2022/10/19 10:39:31;;;;;;;7.33;4.87;;;;;;;23.55;25.17;99647.78;5073903;28;20658;-73
2022/10/19 10:42:05;;;;;;;16.83;5.47;;;;;;;23.70;25.40;99651.28;5074369;28;20727;-72
2022/10/19 10:44:35;;;;;;;16.43;5.07;;;;;;;23.87;25.57;99640.06;5075332;28;20242;-73
2022/10/19 10:47:05;;;;;;;11.40;4.90;;;;;;;24.04;25.30;99635.94;5074146;28;20197;-72
2022/10/19 10:49:35;;;;;;;9.90;4.00;;;;;;;24.22;25.23;99632.56;5073811;28;20209;-72
2022/10/19 10:52:06;;;;;;;5.43;3.53;;;;;;;24.21;24.60;99630.94;5074941;28;20198;-72
2022/10/19 10:54:34;;;;;;;7.43;4.67;;;;;;;24.17;24.50;99629.88;5074173;28;20256;-72
2022/10/19 10:57:12;;;;;;;3.93;3.73;;;;;;;24.20;24.87;99629.34;5074600;28;20195;-72
2022/10/19 10:59:46;;;;;;;11.43;4.00;;;;;;;24.14;24.80;99616.88;5074068;28;20194;-71
2022/10/19 11:02:24;;;;;;;6.50;3.87;;;;;;;24.26;24.84;99606.47;5074446;28;20707;-73
2022/10/19 11:04:54;;;;;;;9.00;3.43;;;;;;;24.28;24.89;99601.59;5074241;28;20253;-67
2022/10/19 11:07:24;;;;;;;7.87;3.30;;;;;;;24.34;24.60;99608.59;5075089;28;20198;-67
2022/10/19 11:09:54;;;;;;;4.00;3.63;;;;;;;24.46;26.58;99595.47;5073526;28;20214;-68
2022/10/19 11:12:33;;;;;;;10.43;3.23;;;;;;;24.47;25.12;99597.06;5074707;28;20677;-67
2022/10/19 11:15:06;;;;;;;8.87;3.30;;;;;;;24.57;25.67;99598.91;5061122;28;20277;-65
2022/10/19 11:17:38;;;;;;;5.20;3.57;;;;;;;24.60;25.96;99596.47;5053913;28;20195;-66
2022/10/19 11:20:06;;;;;;;6.00;3.13;;;;;;;24.70;24.42;99601.00;5053828;28;20229;-64
2022/10/19 11:22:40;;;;;;;10.60;3.40;;;;;;;24.68;24.13;99598.59;5053955;28;20200;-65
2022/10/19 11:25:23;;;;;;;20.03;5.03;;;;;;;24.73;26.27;99579.53;5060643;28;20577;-67
2022/10/19 11:28:01;;;;;;;6.37;3.27;;;;;;;24.78;25.79;99582.19;5073844;28;20186;-69
2022/10/19 11:30:32;;;;;;;13.33;3.83;;;;;;;24.93;25.62;99578.50;5052423;28;20423;-66
2022/10/19 11:33:07;;;;;;;6.50;3.20;;;;;;;25.18;26.12;99569.28;5055432;28;20722;-67
2022/10/19 11:35:51;;;;;;;7.00;3.80;;;;;;;25.11;24.36;99563.38;5073265;28;20257;-67
2022/10/19 11:38:40;;;;;;;4.87;3.13;;;;;;;25.17;25.52;99567.66;5073816;28;20269;-68
2022/10/19 11:41:20;;;;;;;4.00;3.20;;;;;;;25.20;24.34;99561.63;5060133;28;20726;-69
2022/10/19 11:44:06;;;;;;;5.60;4.00;;;;;;;25.02;23.94;99554.25;5054456;28;20199;-68